createdAt,value
2023-02-09T05:47:36.998Z,-6.90
2023-02-09T05:50:05.580Z,-6.80
2023-02-09T05:52:33.559Z,-6.60
2023-02-09T05:55:01.656Z,-6.60
2023-02-09T05:57:29.554Z,-6.60
2023-02-09T05:59:57.456Z,-6.60
2023-02-09T06:02:25.364Z,-6.60
2023-02-09T06:04:54.652Z,-6.60
2023-02-09T06:07:22.585Z,-6.70
2023-02-09T06:09:50.548Z,-6.70
2023-02-09T06:12:18.475Z,-6.80
2023-02-09T06:14:46.452Z,-6.70
2023-02-09T06:17:14.403Z,-6.40
2023-02-09T06:19:42.320Z,-6.10
2023-02-09T06:22:11.671Z,-5.90
2023-02-09T06:24:39.630Z,-5.70
2023-02-09T06:27:07.538Z,-5.60
2023-02-09T06:29:35.481Z,-5.60
2023-02-09T06:32:03.566Z,-5.70
2023-02-09T06:34:31.558Z,-5.80
2023-02-09T06:36:59.467Z,-5.90
2023-02-09T06:39:29.473Z,-6.00
2023-02-09T06:41:57.408Z,-6.00
2023-02-09T06:44:25.313Z,-6.10
2023-02-09T06:46:53.203Z,-6.30
2023-02-09T06:49:23.627Z,-6.30
2023-02-09T06:51:52.040Z,-6.40
2023-02-09T06:54:20.092Z,-6.30
2023-02-09T06:56:49.464Z,-5.90
2023-02-09T06:59:17.451Z,-6.00
2023-02-09T07:01:45.391Z,-6.00
2023-02-09T07:04:13.393Z,-6.10
2023-02-09T07:06:41.361Z,-6.10
2023-02-09T07:09:11.044Z,-6.10
2023-02-09T07:11:38.948Z,-6.10
2023-02-09T07:14:08.201Z,-6.10
2023-02-09T07:16:36.109Z,-6.10
2023-02-09T07:19:04.036Z,-6.10
2023-02-09T07:21:31.975Z,-6.10
2023-02-09T07:23:59.897Z,-6.00
2023-02-09T07:26:27.867Z,-5.90
2023-02-09T07:28:55.864Z,-5.70
2023-02-09T07:31:27.126Z,-5.70
2023-02-09T07:33:56.620Z,-5.60
2023-02-09T07:36:24.919Z,-5.60
2023-02-09T07:38:53.036Z,-5.40
2023-02-09T07:41:25.146Z,-5.30
2023-02-09T07:43:53.911Z,-5.20
2023-02-09T15:02:35.919Z,2.30
2023-02-09T15:05:03.890Z,2.30
2023-02-09T15:07:36.466Z,2.30
2023-02-09T15:10:05.021Z,2.30
2023-02-09T15:12:33.045Z,2.40
2023-02-09T15:15:02.614Z,2.30
2023-02-09T15:17:32.286Z,2.30
2023-02-09T15:20:01.580Z,2.30
2023-02-09T15:22:29.601Z,2.20
2023-02-09T15:24:57.593Z,2.30
2023-02-09T15:27:28.323Z,2.30
2023-02-09T15:29:59.496Z,2.10
2023-02-09T15:32:29.482Z,1.90
2023-02-09T15:34:57.617Z,1.70
2023-02-09T15:37:28.982Z,1.40
2023-02-09T15:40:00.451Z,1.20
2023-02-09T15:42:46.072Z,1.00
2023-02-09T15:45:38.144Z,0.90
2023-02-09T15:48:06.764Z,0.70
2023-02-09T15:50:37.112Z,0.60
2023-02-09T15:53:09.270Z,0.50
2023-02-09T15:55:38.152Z,0.30
2023-02-09T15:58:13.781Z,0.10
2023-02-09T16:00:41.950Z,-0.10
2023-02-09T16:03:15.584Z,-0.20
2023-02-09T16:05:44.171Z,-0.30
2023-02-09T16:08:20.005Z,-0.40
2023-02-09T16:10:48.794Z,-0.50
2023-02-09T16:13:18.403Z,-0.50
2023-02-09T16:15:47.937Z,-0.70
2023-02-09T16:18:15.984Z,-0.70
2023-02-09T16:20:47.791Z,-0.70
2023-02-09T16:23:21.473Z,-0.70
2023-02-09T16:25:50.685Z,-0.70
2023-02-09T16:28:19.362Z,-0.70
2023-02-09T16:30:53.118Z,-0.80
2023-02-09T16:33:21.906Z,-0.70
2023-02-09T16:35:54.212Z,-0.80
2023-02-09T16:38:24.936Z,-0.80
2023-02-09T16:40:54.141Z,-0.80
2023-02-09T16:43:22.784Z,-0.90
2023-02-09T16:46:02.856Z,-1.00
2023-02-09T16:48:35.154Z,-1.00
2023-02-09T16:51:03.530Z,-1.00
2023-02-09T16:53:36.622Z,-1.20
2023-02-09T16:56:09.997Z,-1.30
2023-02-09T16:58:38.321Z,-1.50
2023-02-09T17:01:14.466Z,-1.60
2023-02-09T17:03:44.618Z,-1.60
2023-02-09T17:06:17.190Z,-1.70
2023-02-09T17:08:46.903Z,-1.70
2023-02-09T17:11:17.965Z,-1.70
2023-02-09T17:13:46.067Z,-1.70
2023-02-09T17:16:18.816Z,-1.20
2023-02-09T17:18:49.373Z,-0.80
2023-02-09T17:21:21.574Z,-0.90
2023-02-09T17:23:52.227Z,-1.20
2023-02-09T17:26:20.754Z,-1.30
2023-02-09T17:28:48.841Z,-1.50
2023-02-09T17:31:19.701Z,-1.70
2023-02-09T17:33:50.061Z,-1.70
2023-02-09T17:36:26.329Z,-1.80
2023-02-09T17:38:57.599Z,-1.80
2023-02-09T17:41:31.376Z,-1.90
2023-02-09T17:44:20.822Z,-2.00
2023-02-09T17:46:54.486Z,-2.10
2023-02-09T17:49:23.245Z,-2.20
2023-02-09T17:51:51.500Z,-2.30
2023-02-09T17:54:21.833Z,-2.40
2023-02-09T17:56:52.925Z,-2.50
2023-02-09T17:59:22.822Z,-2.50
2023-02-09T18:01:51.252Z,-2.50
2023-02-09T18:04:22.384Z,-2.60
2023-02-09T18:06:50.935Z,-2.50
2023-02-09T18:09:20.444Z,-2.60
2023-02-09T18:12:01.423Z,-2.60
2023-02-09T18:14:31.732Z,-2.60
2023-02-09T18:16:59.840Z,-2.60
2023-02-09T18:19:27.882Z,-2.60
2023-02-09T18:21:58.017Z,-2.60
2023-02-09T18:24:30.175Z,-2.60
2023-02-09T18:26:58.220Z,-2.70
2023-02-09T18:29:29.332Z,-2.60
2023-02-09T18:31:59.956Z,-2.50
2023-02-09T18:34:28.278Z,-2.40
2023-02-09T18:36:56.420Z,-2.40
2023-02-09T18:39:24.942Z,-2.30
2023-02-09T18:41:55.293Z,-2.20
2023-02-09T18:44:29.180Z,-2.30
2023-02-09T18:46:57.686Z,-2.30
2023-02-09T18:49:25.823Z,-2.30
2023-02-09T18:51:53.893Z,-2.40
2023-02-09T18:54:21.934Z,-2.30
2023-02-09T18:56:49.870Z,-2.40
2023-02-09T18:59:19.356Z,-2.50
2023-02-09T19:01:47.421Z,-2.50
2023-02-09T19:04:15.444Z,-2.60
2023-02-09T19:06:46.256Z,-2.70
2023-02-09T19:09:14.289Z,-2.80
2023-02-09T19:11:42.196Z,-2.70
2023-02-09T19:14:44.151Z,-2.70
2023-02-09T19:17:19.284Z,-2.70
2023-02-09T19:19:48.789Z,-2.70
2023-02-09T19:22:18.353Z,-2.70
2023-02-09T19:24:47.526Z,-2.80
2023-02-09T19:27:18.454Z,-2.80
2023-02-09T19:29:47.224Z,-2.80
2023-02-09T19:32:16.589Z,-2.90
2023-02-09T19:34:45.981Z,-2.90
2023-02-09T19:37:16.273Z,-2.90
2023-02-09T19:39:52.584Z,-2.80
2023-02-09T19:42:21.648Z,-2.70
2023-02-09T19:44:50.256Z,-2.70
2023-02-09T19:47:25.804Z,-2.60
2023-02-09T19:49:55.308Z,-2.60
2023-02-09T19:52:23.441Z,-2.60
2023-02-09T19:54:52.130Z,-2.60
2023-02-09T19:57:20.851Z,-2.60
2023-02-09T19:59:49.466Z,-2.70
2023-02-09T20:02:19.384Z,-2.70
2023-02-09T20:04:47.430Z,-2.80
2023-02-09T20:07:16.057Z,-2.80
2023-02-09T20:09:48.094Z,-2.80
2023-02-09T20:12:16.109Z,-2.80
2023-02-09T20:14:44.200Z,-2.80
2023-02-09T20:17:12.454Z,-2.80
2023-02-09T20:19:42.070Z,-2.90
2023-02-09T20:22:10.145Z,-2.90
2023-02-09T20:24:38.347Z,-3.00
2023-02-09T20:27:07.823Z,-2.90
2023-02-09T20:29:37.463Z,-2.80
2023-02-09T20:32:06.108Z,-2.90
2023-02-09T20:34:34.167Z,-2.90
2023-02-09T20:37:03.645Z,-2.80
2023-02-09T20:39:31.820Z,-2.80
2023-02-09T20:42:17.847Z,-2.90
2023-02-09T20:45:03.413Z,-3.00
2023-02-09T20:47:31.939Z,-2.90
2023-02-09T20:50:00.958Z,-2.90
2023-02-09T20:52:31.359Z,-2.80
2023-02-09T20:54:59.474Z,-2.70
2023-02-09T20:57:30.243Z,-2.70
2023-02-09T20:59:58.319Z,-2.70
